Time;durP1;ratioP1;P1;durP2;ratioP2;P2;SDS_P1;SDS_P2;PMS_P1;PMS_P2;Temp;Humidity;BMP_temperature;BMP_pressure;BME280_temperature;BME280_humidity;BME280_pressure;Samples;Min_cycle;Max_cycle;Signal;HPM_P1;HPM_P2
2022/12/25 00:00:32;;;;;;;5.32;4.93;;;;;;;6.72;nan;95387.34;5052278;28;20205;-61
2022/12/25 00:02:59;;;;;;;6.13;5.30;;;;;;;6.61;nan;95367.31;5049667;28;20201;-61
2022/12/25 00:05:25;;;;;;;5.78;5.20;;;;;;;6.78;nan;95395.69;5050924;28;20335;-62
2022/12/25 00:07:52;;;;;;;5.97;5.35;;;;;;;6.78;nan;95402.44;5050507;28;20205;-61
2022/12/25 00:10:20;;;;;;;6.63;5.93;;;;;;;6.78;nan;95395.69;5046528;28;21879;-62
2022/12/25 00:12:47;;;;;;;6.10;5.60;;;;;;;6.75;nan;95407.50;5050421;28;20627;-60
2022/12/25 00:15:14;;;;;;;5.40;5.00;;;;;;;6.82;nan;95407.41;5051565;28;20232;-62
2022/12/25 00:17:41;;;;;;;4.93;4.63;;;;;;;6.87;nan;95409.06;5051292;28;20609;-61
2022/12/25 00:20:09;;;;;;;5.90;5.25;;;;;;;6.87;nan;95404.00;5049388;28;20231;-58
2022/12/25 00:22:35;;;;;;;6.35;5.25;;;;;;;6.99;nan;95416.44;5049498;28;21616;-61
2022/12/25 00:25:02;;;;;;;6.07;5.68;;;;;;;6.98;nan;95407.19;5050856;28;20218;-60
2022/12/25 00:27:33;;;;;;;5.18;4.78;;;;;;;7.03;nan;95406.28;5049857;28;20202;-60
2022/12/25 00:30:00;;;;;;;5.47;5.03;;;;;;;7.04;nan;95407.13;5050666;28;20205;-60
2022/12/25 00:32:27;;;;;;;6.20;5.57;;;;;;;7.01;nan;95407.16;5049167;28;20209;-59
2022/12/25 00:34:54;;;;;;;6.20;5.20;;;;;;;7.08;nan;95404.53;5050710;28;20242;-61
2022/12/25 00:37:21;;;;;;;5.30;4.97;;;;;;;7.07;nan;95418.03;5050907;28;20197;-61
2022/12/25 00:39:48;;;;;;;6.47;5.97;;;;;;;7.07;nan;95420.56;5050189;28;20239;-60
2022/12/25 00:42:22;;;;;;;5.30;4.90;;;;;;;7.03;nan;95428.19;5049748;28;20205;-65
2022/12/25 00:44:50;;;;;;;5.45;4.95;;;;;;;7.11;nan;95423.88;5039431;28;21525;-63
2022/12/25 00:47:18;;;;;;;6.00;5.50;;;;;;;7.20;nan;95428.78;5047318;28;20197;-61
2022/12/25 00:49:45;;;;;;;5.03;4.63;;;;;;;7.25;nan;95432.06;5048516;28;20796;-61
2022/12/25 00:52:11;;;;;;;9.38;4.43;;;;;;;7.24;nan;95427.88;5044799;28;20237;-61
2022/12/25 00:54:38;;;;;;;5.03;4.72;;;;;;;7.34;nan;95434.47;5047675;28;20202;-61
2022/12/25 00:57:05;;;;;;;5.38;4.78;;;;;;;7.27;nan;95429.53;5048457;28;20274;-60
2022/12/25 00:59:32;;;;;;;5.88;5.32;;;;;;;7.27;nan;95430.38;5048331;28;21222;-61
2022/12/25 01:02:22;;;;;;;5.28;4.97;;;;;;;7.25;nan;95427.03;5048532;28;20263;-62
2022/12/25 01:04:50;;;;;;;5.13;4.72;;;;;;;7.27;nan;95425.31;5048006;28;20631;-60
2022/12/25 01:07:16;;;;;;;9.65;5.78;;;;;;;7.21;nan;95425.38;5048328;28;20205;-59
2022/12/25 01:12:28;;;;;;;6.22;5.10;;;;;;;7.12;nan;95430.59;5048742;28;20213;-59
2022/12/25 01:14:55;;;;;;;6.80;4.93;;;;;;;7.07;nan;95434.88;5048834;28;20233;-60
2022/12/25 01:17:23;;;;;;;6.15;4.95;;;;;;;7.00;nan;95433.28;5049627;28;20209;-61
2022/12/25 01:19:50;;;;;;;4.95;4.45;;;;;;;6.89;nan;95425.03;5049212;28;20197;-61
2022/12/25 01:22:17;;;;;;;5.45;4.93;;;;;;;6.93;nan;95431.72;5047529;28;20206;-60
2022/12/25 01:24:44;;;;;;;4.70;4.40;;;;;;;6.96;nan;95439.22;5050137;28;22135;-61
2022/12/25 01:27:11;;;;;;;4.85;4.45;;;;;;;6.96;nan;95440.06;5047772;28;20206;-59
2022/12/25 01:29:38;;;;;;;5.20;4.80;;;;;;;6.83;nan;95431.00;5047870;28;20796;-60
2022/12/25 01:32:05;;;;;;;4.50;4.20;;;;;;;6.81;nan;95436.06;5048102;28;20640;-60
2022/12/25 01:34:34;;;;;;;3.92;3.70;;;;;;;6.83;nan;95444.47;5047937;28;20217;-62
2022/12/25 01:37:00;;;;;;;4.75;4.25;;;;;;;6.83;nan;95446.16;5047275;28;20198;-60
2022/12/25 01:39:27;;;;;;;4.85;4.35;;;;;;;6.82;nan;95440.25;5048894;28;20683;-61
2022/12/25 01:41:56;;;;;;;5.03;4.63;;;;;;;6.87;nan;95446.94;5053419;28;20270;-60
2022/12/25 01:45:00;;;;;;;4.47;4.07;;;;;;;6.82;nan;95442.78;5052638;28;20240;-61
2022/12/25 01:47:27;;;;;;;4.57;4.03;;;;;;;6.85;nan;95430.97;5053219;28;20205;-60
2022/12/25 01:49:56;;;;;;;4.22;4.00;;;;;;;6.79;nan;95431.88;5050932;28;20714;-60
2022/12/25 01:52:25;;;;;;;4.32;3.92;;;;;;;6.82;nan;95437.75;5051576;28;20707;-60
2022/12/25 01:54:55;;;;;;;4.32;3.92;;;;;;;6.79;nan;95442.00;5049381;28;20208;-62
2022/12/25 01:57:25;;;;;;;4.53;4.10;;;;;;;6.72;nan;95430.28;5053506;28;20295;-59
2022/12/25 01:59:52;;;;;;;5.50;3.78;;;;;;;6.71;nan;95442.06;5052871;28;20198;-61
2022/12/25 02:02:20;;;;;;;4.38;4.00;;;;;;;6.68;nan;95438.78;5052655;28;20232;-60
2022/12/25 02:04:52;;;;;;;4.40;4.10;;;;;;;6.69;nan;95436.22;5053731;28;20962;-62
2022/12/25 02:07:22;;;;;;;4.70;4.30;;;;;;;6.68;nan;95437.06;5053649;28;20707;-64
2022/12/25 02:09:49;;;;;;;5.77;5.27;;;;;;;6.73;nan;95453.00;5059370;28;20217;-61
2022/12/25 02:12:21;;;;;;;4.88;4.35;;;;;;;6.76;nan;95442.03;5060314;28;21193;-60
2022/12/25 02:14:49;;;;;;;4.90;4.50;;;;;;;6.66;nan;95437.97;5058711;28;21017;-60
2022/12/25 02:17:23;;;;;;;4.60;4.30;;;;;;;6.71;nan;95449.66;5059188;28;20201;-60
2022/12/25 02:20:27;;;;;;;5.22;4.07;;;;;;;6.68;nan;95449.69;5060754;28;20580;-59
2022/12/25 02:23:12;;;;;;;4.78;4.38;;;;;;;6.57;nan;95443.13;5046016;28;20992;-60
2022/12/25 02:25:53;;;;;;;4.90;4.50;;;;;;;6.63;nan;95441.34;5060021;28;20225;-60
2022/12/25 02:28:26;;;;;;;4.80;4.10;;;;;;;6.66;nan;95438.81;5060532;28;20532;-62
2022/12/25 02:31:00;;;;;;;4.32;3.97;;;;;;;6.62;nan;95437.16;5075482;28;20210;-61
2022/12/25 02:36:35;;;;;;;4.82;3.85;;;;;;;6.58;nan;95443.09;5048031;28;20283;-60
2022/12/25 02:41:55;;;;;;;4.22;3.92;;;;;;;6.49;nan;95443.19;5074655;28;20208;-60
2022/12/25 03:07:01;;;;;;;4.72;4.43;;;;;;;6.53;nan;95459.16;5094261;28;20256;-61
2022/12/25 03:12:24;;;;;;;4.80;4.50;;;;;;;6.47;nan;95462.56;5094072;28;20274;-62
2022/12/25 03:17:36;;;;;;;4.40;4.03;;;;;;;6.63;nan;95470.81;5094152;28;20220;-62
2022/12/25 03:28:18;;;;;;;5.78;4.78;;;;;;;6.80;nan;95482.38;5093954;28;20247;-61
2022/12/25 03:31:10;;;;;;;5.63;5.13;;;;;;;6.80;nan;95476.50;5093890;28;20198;-61
2022/12/25 03:36:42;;;;;;;4.70;4.40;;;;;;;6.67;nan;95470.78;5092614;28;20196;-61
2022/12/25 04:37:31;;;;;;;4.30;4.00;;;;;;;5.99;nan;95547.16;5092350;28;20704;-60
2022/12/25 04:39:59;;;;;;;6.35;4.95;;;;;;;6.08;nan;95558.03;5092206;28;20251;-60
2022/12/25 04:42:25;;;;;;;5.15;4.75;;;;;;;6.08;nan;95547.09;5092669;28;20202;-61
2022/12/25 04:44:52;;;;;;;5.15;4.75;;;;;;;6.18;nan;95565.53;5092030;28;20562;-60
2022/12/25 04:47:19;;;;;;;6.50;4.70;;;;;;;6.05;nan;95560.59;5092417;28;20206;-60
2022/12/25 04:49:45;;;;;;;5.35;4.80;;;;;;;6.11;nan;95558.00;5092421;28;20527;-60
2022/12/25 04:52:12;;;;;;;5.28;4.88;;;;;;;6.25;nan;95560.41;5092007;28;20204;-60
2022/12/25 04:54:39;;;;;;;5.78;4.53;;;;;;;6.27;nan;95561.22;5092077;28;20583;-61
2022/12/25 04:57:07;;;;;;;5.65;5.15;;;;;;;6.27;nan;95573.84;5091731;28;20201;-61
2022/12/25 04:59:34;;;;;;;5.18;4.78;;;;;;;6.25;nan;95577.22;5092116;28;20193;-61
2022/12/25 05:02:00;;;;;;;5.88;5.00;;;;;;;6.26;nan;95581.44;5091417;28;20581;-61
2022/12/25 05:04:27;;;;;;;5.85;4.82;;;;;;;6.25;nan;95569.66;5091453;28;20198;-61
2022/12/25 05:06:54;;;;;;;5.25;4.30;;;;;;;6.26;nan;95571.34;5091677;28;20221;-60
2022/12/25 05:09:21;;;;;;;6.07;5.40;;;;;;;6.26;nan;95561.25;5091668;28;20254;-61
2022/12/25 05:11:47;;;;;;;5.10;4.72;;;;;;;6.22;nan;95564.63;5091726;28;20628;-61
2022/12/25 05:14:16;;;;;;;4.63;4.20;;;;;;;6.24;nan;95568.00;5091401;28;20237;-61
2022/12/25 05:16:42;;;;;;;4.65;4.32;;;;;;;6.18;nan;95563.03;5091886;28;20193;-61
2022/12/25 05:19:09;;;;;;;6.03;4.90;;;;;;;6.23;nan;95572.19;5092117;28;20223;-61
2022/12/25 05:21:37;;;;;;;5.70;5.25;;;;;;;6.24;nan;95560.41;5091787;28;20201;-61
2022/12/25 05:24:04;;;;;;;5.18;4.70;;;;;;;6.29;nan;95563.75;5091513;28;20202;-60
2022/12/25 05:26:31;;;;;;;5.45;4.88;;;;;;;6.28;nan;95564.59;5091650;28;20226;-60
2022/12/25 05:28:59;;;;;;;7.80;4.95;;;;;;;6.38;nan;95568.72;5091019;28;20201;-60
2022/12/25 05:31:27;;;;;;;5.55;5.03;;;;;;;6.40;nan;95577.13;5091258;28;20201;-60
2022/12/25 05:33:54;;;;;;;4.32;4.03;;;;;;;6.42;nan;95583.84;5091367;28;20225;-60
2022/12/25 05:36:20;;;;;;;5.10;4.68;;;;;;;6.42;nan;95580.47;5092114;28;20189;-61
2022/12/25 05:38:47;;;;;;;5.38;4.97;;;;;;;6.29;nan;95578.88;5091090;28;20577;-60
2022/12/25 05:41:14;;;;;;;5.03;4.60;;;;;;;6.22;nan;95584.81;5091651;28;20258;-61
2022/12/25 05:43:41;;;;;;;5.60;4.45;;;;;;;6.12;nan;95584.91;5091181;28;20210;-61
2022/12/25 05:46:09;;;;;;;5.90;5.15;;;;;;;6.19;nan;95578.13;5091592;28;20324;-61
2022/12/25 05:48:38;;;;;;;6.18;5.57;;;;;;;6.07;nan;95581.59;5091399;28;20197;-60
2022/12/25 05:51:07;;;;;;;6.78;4.97;;;;;;;6.00;nan;95590.06;5091023;28;20202;-61
2022/12/25 05:53:34;;;;;;;7.53;5.25;;;;;;;5.96;nan;95590.91;5091440;28;20197;-60
2022/12/25 05:56:01;;;;;;;6.22;4.55;;;;;;;6.00;nan;95599.31;5091309;28;20255;-60
2022/12/25 05:58:28;;;;;;;5.07;4.60;;;;;;;5.99;nan;95588.38;5091105;28;20678;-62
2022/12/25 06:00:55;;;;;;;4.88;4.13;;;;;;;5.97;nan;95604.38;5090951;28;20202;-62
2022/12/25 06:03:23;;;;;;;4.93;4.47;;;;;;;6.01;nan;95598.47;5091013;28;20262;-62
2022/12/25 06:05:51;;;;;;;4.87;4.17;;;;;;;6.02;nan;95603.50;5091288;28;20225;-62
2022/12/25 06:08:18;;;;;;;4.50;4.18;;;;;;;6.08;nan;95613.53;5090981;28;20259;-61
2022/12/25 06:10:45;;;;;;;4.82;3.58;;;;;;;6.17;nan;95611.81;5090924;28;20753;-62
2022/12/25 06:13:12;;;;;;;5.88;4.57;;;;;;;6.20;nan;95612.59;5091239;28;20239;-61
2022/12/25 06:15:40;;;;;;;3.95;3.55;;;;;;;6.20;nan;95607.56;5091075;28;20235;-61
2022/12/25 06:18:07;;;;;;;5.50;4.97;;;;;;;6.27;nan;95613.41;5091082;28;20564;-60
2022/12/25 06:20:34;;;;;;;13.15;10.85;;;;;;;6.36;nan;95616.69;5090549;28;20205;-61
2022/12/25 06:23:02;;;;;;;15.45;10.10;;;;;;;6.38;nan;95626.78;5091210;28;20201;-61
2022/12/25 06:25:29;;;;;;;9.35;6.00;;;;;;;6.44;nan;95626.69;5090670;28;20221;-62
2022/12/25 06:27:55;;;;;;;46.75;24.52;;;;;;;6.55;nan;95627.47;5090764;28;20624;-61
2022/12/25 06:30:22;;;;;;;17.08;9.98;;;;;;;6.61;nan;95629.94;5090904;28;20204;-62
2022/12/25 06:32:49;;;;;;;5.72;4.97;;;;;;;6.70;nan;95629.84;5090779;28;20259;-60
2022/12/25 06:35:16;;;;;;;4.50;4.20;;;;;;;6.78;nan;95638.19;5090677;28;20202;-62
2022/12/25 06:37:42;;;;;;;5.03;3.03;;;;;;;6.98;nan;95639.66;5090778;28;20225;-61
2022/12/25 06:40:12;;;;;;;3.45;3.03;;;;;;;7.02;nan;95643.84;5093740;28;20247;-61
2022/12/25 06:42:39;;;;;;;2.50;2.40;;;;;;;7.10;nan;95645.44;5094822;28;20742;-61
2022/12/25 06:45:06;;;;;;;4.65;2.80;;;;;;;7.12;nan;95647.97;5094960;28;20197;-60
2022/12/25 06:47:33;;;;;;;4.72;3.22;;;;;;;7.17;nan;95661.38;5094645;28;20799;-61
2022/12/25 06:50:00;;;;;;;3.08;2.85;;;;;;;7.38;nan;95663.66;5094412;28;20690;-61
2022/12/25 06:52:26;;;;;;;4.22;2.97;;;;;;;7.54;nan;95663.47;5094427;28;20198;-61
2022/12/25 06:54:53;;;;;;;3.45;3.22;;;;;;;7.60;nan;95665.94;5094606;28;20201;-61
2022/12/25 06:57:21;;;;;;;3.85;3.40;;;;;;;7.71;nan;95661.56;5094494;28;20197;-61
2022/12/25 06:59:48;;;;;;;4.47;4.07;;;;;;;7.76;nan;95660.66;5094455;28;20686;-61
2022/12/25 07:02:19;;;;;;;6.75;6.18;;;;;;;7.79;nan;95663.16;5094363;28;20193;-61
2022/12/25 07:04:46;;;;;;;9.13;4.35;;;;;;;7.97;nan;95677.22;5094119;28;20200;-61
2022/12/25 07:07:14;;;;;;;4.68;3.05;;;;;;;8.27;nan;95675.13;5094401;28;20225;-61
2022/12/25 07:09:41;;;;;;;4.40;2.67;;;;;;;8.46;nan;95679.09;5094470;28;20201;-60
2022/12/25 07:12:15;;;;;;;3.83;2.40;;;;;;;8.74;nan;95682.00;5094134;28;20239;-60
2022/12/25 07:14:43;;;;;;;4.47;2.67;;;;;;;9.02;nan;95687.47;5094201;28;20256;-62
2022/12/25 07:17:10;;;;;;;3.45;2.70;;;;;;;9.25;nan;95685.34;5094166;28;20671;-62
2022/12/25 07:19:36;;;;;;;3.63;2.80;;;;;;;9.51;nan;95693.28;5094114;28;20205;-61
2022/12/25 07:22:03;;;;;;;7.53;2.35;;;;;;;10.11;nan;95700.53;5094296;28;20197;-61
2022/12/25 07:24:30;;;;;;;2.28;2.00;;;;;;;10.98;nan;95695.97;5093709;28;20198;-60
2022/12/25 07:26:57;;;;;;;5.85;3.03;;;;;;;11.23;nan;95686.00;5094296;28;20221;-62
2022/12/25 07:29:23;;;;;;;9.40;6.53;;;;;;;11.21;nan;95690.31;5093879;28;20208;-61
2022/12/25 07:31:51;;;;;;;3.22;2.72;;;;;;;11.58;nan;95693.56;5093638;28;20202;-61
2022/12/25 07:34:18;;;;;;;4.90;2.95;;;;;;;12.43;nan;95692.78;5093687;28;20283;-63
2022/12/25 07:36:45;;;;;;;3.08;2.88;;;;;;;13.17;nan;95702.34;5094060;28;20194;-62
2022/12/25 07:39:12;;;;;;;3.08;2.15;;;;;;;13.80;nan;95701.00;5093482;28;20699;-60
2022/12/25 07:41:39;;;;;;;4.07;2.15;;;;;;;14.68;nan;95704.50;5093778;28;20198;-61
2022/12/25 07:44:06;;;;;;;2.35;2.15;;;;;;;15.19;nan;95704.13;5093778;28;20251;-61
2022/12/25 07:46:33;;;;;;;4.28;3.47;;;;;;;15.64;nan;95705.69;5093733;28;20225;-60
2022/12/25 07:49:01;;;;;;;10.88;6.93;;;;;;;16.54;nan;95699.91;5093277;28;20255;-60
2022/12/25 07:51:28;;;;;;;9.77;5.40;;;;;;;16.34;nan;95707.66;5092758;28;20330;-61
2022/12/25 07:53:56;;;;;;;3.70;2.60;;;;;;;15.88;nan;95711.47;5093233;28;20634;-59
2022/12/25 07:56:22;;;;;;;2.78;2.50;;;;;;;15.91;nan;95711.34;5093322;28;20193;-61
2022/12/25 07:58:49;;;;;;;3.20;2.72;;;;;;;16.35;nan;95701.63;5093748;28;20205;-60
2022/12/25 08:01:19;;;;;;;2.50;2.30;;;;;;;16.77;nan;95718.56;5093389;28;20259;-61
2022/12/25 08:03:49;;;;;;;3.00;2.75;;;;;;;16.97;nan;95724.41;5093284;28;20200;-61
2022/12/25 08:06:18;;;;;;;3.42;2.55;;;;;;;16.09;nan;95735.31;5092788;28;20772;-61
2022/12/25 08:08:45;;;;;;;2.83;2.45;;;;;;;15.23;nan;95743.25;5092903;28;20201;-60
2022/12/25 08:11:12;;;;;;;3.58;2.75;;;;;;;15.06;nan;95738.00;5092762;28;20671;-61
2022/12/25 08:13:39;;;;;;;3.13;2.90;;;;;;;15.06;nan;95735.44;5092993;28;20202;-61
2022/12/25 08:16:08;;;;;;;3.95;2.95;;;;;;;15.07;nan;95726.88;5092804;28;20590;-59
2022/12/25 08:18:36;;;;;;;3.42;3.13;;;;;;;15.09;nan;95728.47;5093252;28;20201;-62
2022/12/25 08:21:04;;;;;;;4.03;2.60;;;;;;;14.54;nan;95724.69;5092886;28;20690;-62
2022/12/25 08:23:33;;;;;;;3.67;2.20;;;;;;;14.30;nan;95717.03;5093154;28;20209;-60
2022/12/25 08:26:01;;;;;;;2.78;2.25;;;;;;;14.09;nan;95720.41;5092920;28;20205;-61
2022/12/25 08:28:29;;;;;;;2.55;2.40;;;;;;;14.04;nan;95724.84;5093013;28;20205;-60
2022/12/25 08:30:56;;;;;;;4.88;2.78;;;;;;;14.04;nan;95714.59;5092798;28;20246;-61
2022/12/25 08:33:22;;;;;;;2.20;2.10;;;;;;;13.97;nan;95708.03;5092617;28;20710;-61
2022/12/25 08:35:49;;;;;;;6.45;2.45;;;;;;;14.23;nan;95718.16;5092424;28;20194;-60
2022/12/25 08:38:16;;;;;;;2.25;2.10;;;;;;;14.44;nan;95723.38;5093051;28;20576;-62
2022/12/25 08:40:44;;;;;;;3.15;2.50;;;;;;;14.44;nan;95725.94;5092573;28;20201;-60
2022/12/25 08:43:10;;;;;;;2.88;2.08;;;;;;;14.58;nan;95728.81;5092913;28;20255;-61
2022/12/25 08:45:37;;;;;;;2.22;2.03;;;;;;;14.66;nan;95734.44;5092714;28;20197;-62
2022/12/25 08:48:04;;;;;;;2.08;1.98;;;;;;;14.88;nan;95732.69;5092310;28;20290;-61
2022/12/25 08:50:31;;;;;;;1.65;1.52;;;;;;;14.87;nan;95737.88;5092532;28;20658;-61
2022/12/25 08:52:58;;;;;;;2.42;1.75;;;;;;;14.65;nan;95727.66;5092456;28;20577;-62
2022/12/25 08:55:24;;;;;;;1.65;1.40;;;;;;;14.49;nan;95737.66;5092599;28;20194;-60
2022/12/25 08:57:53;;;;;;;4.60;2.00;;;;;;;14.36;nan;95735.56;5092626;28;20267;-59
2022/12/25 09:00:21;;;;;;;2.90;1.92;;;;;;;14.29;nan;95734.97;5092258;28;20309;-62
2022/12/25 09:02:47;;;;;;;2.47;1.48;;;;;;;14.28;nan;95739.25;5092096;28;20678;-61
2022/12/25 09:05:14;;;;;;;1.85;1.58;;;;;;;14.15;nan;95738.03;5092129;28;20201;-62
2022/12/25 09:07:41;;;;;;;2.05;1.60;;;;;;;14.24;nan;95745.38;5092172;28;20783;-61
2022/12/25 09:10:09;;;;;;;5.38;1.90;;;;;;;14.32;nan;95734.88;5092108;28;20271;-62
2022/12/25 09:12:36;;;;;;;2.38;1.98;;;;;;;14.43;nan;95737.03;5091926;28;20266;-60
2022/12/25 09:15:05;;;;;;;1.65;1.50;;;;;;;14.38;nan;95738.91;5091802;28;20229;-61
2022/12/25 09:17:33;;;;;;;3.00;1.63;;;;;;;14.24;nan;95737.72;5091703;28;20193;-62
2022/12/25 09:20:00;;;;;;;3.17;2.38;;;;;;;14.36;nan;95746.63;5092145;28;20193;-62
2022/12/25 09:22:26;;;;;;;2.50;2.03;;;;;;;14.36;nan;95735.56;5091785;28;20219;-61
2022/12/25 09:24:53;;;;;;;3.42;2.28;;;;;;;14.28;nan;95738.44;5091776;28;20755;-61
2022/12/25 09:27:20;;;;;;;2.80;2.30;;;;;;;14.41;nan;95731.16;5091442;28;20222;-62
2022/12/25 09:29:46;;;;;;;2.63;2.42;;;;;;;14.53;nan;95736.66;5091792;28;20227;-61
2022/12/25 09:32:15;;;;;;;2.22;1.95;;;;;;;14.64;nan;95737.06;5091272;28;20671;-62
2022/12/25 09:34:41;;;;;;;4.10;1.92;;;;;;;14.56;nan;95738.25;5091755;28;20217;-62
2022/12/25 09:37:08;;;;;;;1.88;1.50;;;;;;;14.56;nan;95735.69;5091779;28;20256;-61
2022/12/25 09:39:35;;;;;;;2.72;1.90;;;;;;;14.41;nan;95726.03;5091635;28;20263;-62
2022/12/25 09:42:07;;;;;;;2.28;2.08;;;;;;;14.51;nan;95724.81;5091402;28;20201;-62
2022/12/25 09:44:37;;;;;;;2.17;1.95;;;;;;;14.56;nan;95730.59;5070828;28;20220;-62
2022/12/25 09:47:10;;;;;;;2.35;1.92;;;;;;;14.58;nan;95726.25;5071077;28;20225;-61
2022/12/25 09:49:44;;;;;;;3.15;1.73;;;;;;;14.58;nan;95734.75;5071395;28;20194;-61
2022/12/25 09:52:16;;;;;;;2.28;2.00;;;;;;;14.63;nan;95719.19;5070599;28;20709;-60
2022/12/25 09:54:51;;;;;;;2.95;1.92;;;;;;;14.60;nan;95716.75;5070985;28;20672;-61
2022/12/25 09:57:18;;;;;;;2.20;1.40;;;;;;;14.65;nan;95717.41;5070969;28;20194;-61
2022/12/25 09:59:46;;;;;;;1.85;1.75;;;;;;;14.68;nan;95716.47;5071258;28;20202;-61
2022/12/25 10:03:07;;;;;;;3.70;1.88;;;;;;;14.66;nan;95713.97;5070424;28;20194;-62
2022/12/25 10:06:07;;;;;;;2.10;1.60;;;;;;;14.57;nan;95711.78;5070853;28;20259;-62
2022/12/25 10:09:12;;;;;;;1.65;1.55;;;;;;;14.63;nan;95721.75;5087625;28;20253;-63
2022/12/25 10:11:55;;;;;;;3.35;1.80;;;;;;;14.83;nan;95721.84;5041930;28;20600;-62
2022/12/25 10:14:31;;;;;;;3.45;1.70;;;;;;;14.90;nan;95707.06;5050402;28;21715;-61
2022/12/25 10:17:14;;;;;;;1.77;1.50;;;;;;;14.81;nan;95713.38;5045265;28;21806;-60
2022/12/25 10:19:49;;;;;;;1.40;1.40;;;;;;;14.75;nan;95718.75;5044365;28;20250;-59
2022/12/25 10:22:31;;;;;;;2.70;2.05;;;;;;;14.66;nan;95711.41;5045206;28;20641;-60
2022/12/25 10:25:00;;;;;;;15.80;11.30;;;;;;;14.67;nan;95712.25;5046139;28;20206;-62
2022/12/25 10:27:31;;;;;;;3.63;2.42;;;;;;;14.86;nan;95715.75;5047687;28;20677;-61
2022/12/25 10:29:59;;;;;;;2.70;1.67;;;;;;;14.78;nan;95703.25;5043836;28;20739;-60
2022/12/25 10:32:25;;;;;;;2.53;1.80;;;;;;;14.88;nan;95707.09;5044972;28;21559;-61
2022/12/25 10:34:52;;;;;;;2.03;1.92;;;;;;;14.92;nan;95700.16;5045979;28;20706;-61
2022/12/25 10:37:20;;;;;;;2.05;1.85;;;;;;;14.99;nan;95706.69;5046375;28;20306;-60
2022/12/25 10:39:47;;;;;;;1.73;1.52;;;;;;;15.02;nan;95701.44;5047223;28;20197;-61
2022/12/25 10:42:28;;;;;;;1.95;1.85;;;;;;;14.93;nan;95702.63;5044993;28;20194;-61
2022/12/25 10:44:56;;;;;;;3.22;2.20;;;;;;;14.84;nan;95712.44;5046486;28;21781;-61
2022/12/25 10:47:25;;;;;;;2.33;1.95;;;;;;;14.87;nan;95699.50;5046247;28;20228;-61
2022/12/25 10:49:52;;;;;;;2.05;1.85;;;;;;;14.93;nan;95702.63;5048056;28;20205;-61
2022/12/25 10:52:23;;;;;;;1.98;1.88;;;;;;;14.86;nan;95703.78;5046379;28;20254;-61
2022/12/25 10:54:50;;;;;;;1.67;1.58;;;;;;;14.70;nan;95694.22;5046788;28;20216;-60
2022/12/25 10:57:19;;;;;;;2.58;1.27;;;;;;;14.56;nan;95697.34;5041045;28;20202;-61
2022/12/25 10:59:48;;;;;;;2.60;1.85;;;;;;;14.50;nan;95702.69;5047057;28;20209;-61
2022/12/25 11:02:21;;;;;;;1.48;1.20;;;;;;;14.39;nan;95694.53;5046444;28;20702;-60
2022/12/25 11:04:49;;;;;;;1.48;1.35;;;;;;;14.41;nan;95692.78;5047009;28;20205;-61
2022/12/25 11:07:25;;;;;;;1.55;1.45;;;;;;;14.50;nan;95695.84;5044871;28;20631;-60
2022/12/25 11:09:53;;;;;;;2.25;2.05;;;;;;;14.46;nan;95696.00;5044640;28;20205;-61
2022/12/25 11:12:30;;;;;;;1.80;1.60;;;;;;;14.53;nan;95694.91;5044903;28;20201;-61
2022/12/25 11:15:00;;;;;;;1.50;1.40;;;;;;;14.45;nan;95702.00;5046717;28;20327;-62
2022/12/25 11:17:28;;;;;;;1.40;1.33;;;;;;;14.34;nan;95691.34;5047111;28;21068;-61
2022/12/25 11:19:56;;;;;;;1.92;1.83;;;;;;;14.11;nan;95677.69;5048021;28;20206;-61
2022/12/25 11:22:25;;;;;;;2.17;1.60;;;;;;;14.21;nan;95689.25;5045297;28;20216;-60
2022/12/25 11:24:52;;;;;;;2.13;1.92;;;;;;;14.30;nan;95701.69;5047558;28;21126;-61
2022/12/25 11:27:23;;;;;;;2.15;1.88;;;;;;;14.25;nan;95690.81;5049712;28;20237;-61
2022/12/25 11:29:52;;;;;;;2.13;1.88;;;;;;;14.21;nan;95690.97;5049289;28;20271;-59
2022/12/25 11:32:23;;;;;;;1.88;1.77;;;;;;;14.19;nan;95700.41;5049018;28;20210;-61
2022/12/25 11:34:51;;;;;;;4.72;1.80;;;;;;;13.95;nan;95654.44;5049075;28;20228;-60
2022/12/25 11:37:22;;;;;;;2.28;1.70;;;;;;;14.19;nan;95708.91;5049770;28;20212;-63
2022/12/25 11:39:50;;;;;;;2.15;1.95;;;;;;;14.15;nan;95714.19;5051138;28;20205;-61
2022/12/25 11:42:21;;;;;;;2.35;1.60;;;;;;;14.13;nan;95713.41;5047143;28;20213;-62
2022/12/25 11:44:54;;;;;;;3.15;2.70;;;;;;;14.18;nan;95711.53;5050125;28;20647;-61
2022/12/25 11:47:25;;;;;;;1.67;1.50;;;;;;;14.18;nan;95706.41;5049643;28;20229;-61
2022/12/25 11:49:57;;;;;;;2.10;1.90;;;;;;;14.05;nan;95710.34;5050587;28;20210;-67
2022/12/25 11:52:28;;;;;;;4.15;3.00;;;;;;;14.08;nan;95710.22;5050874;28;20556;-62
2022/12/25 11:55:05;;;;;;;5.55;3.05;;;;;;;14.29;nan;95720.47;5050082;28;20212;-62
2022/12/25 11:57:35;;;;;;;6.78;2.15;;;;;;;14.60;nan;95703.97;5049947;28;20209;-62
2022/12/25 12:00:07;;;;;;;2.50;2.30;;;;;;;14.68;nan;95696.84;5051471;28;20213;-61
2022/12/25 12:02:38;;;;;;;2.08;1.88;;;;;;;14.91;nan;95694.19;5049880;28;21087;-65
2022/12/25 12:05:16;;;;;;;2.22;1.67;;;;;;;15.12;nan;95707.00;5050116;28;20224;-66
2022/12/25 12:07:53;;;;;;;4.50;2.45;;;;;;;15.20;nan;95716.03;5050093;28;20363;-61
2022/12/25 12:10:32;;;;;;;1.42;1.25;;;;;;;15.15;nan;95710.28;5049206;28;20205;-61
2022/12/25 12:13:13;;;;;;;1.90;1.80;;;;;;;14.76;nan;95704.22;5049343;28;20212;-65
2022/12/25 12:15:43;;;;;;;2.70;2.42;;;;;;;14.45;nan;95714.81;5049508;28;20320;-64
2022/12/25 12:18:19;;;;;;;3.88;2.10;;;;;;;14.20;nan;95700.34;5050805;28;20683;-64
2022/12/25 12:20:58;;;;;;;5.20;3.83;;;;;;;14.00;nan;95710.50;5051093;28;20206;-63
2022/12/25 12:23:25;;;;;;;3.15;2.83;;;;;;;13.85;nan;95709.34;5045783;28;20645;-64
2022/12/25 12:25:53;;;;;;;2.47;2.22;;;;;;;13.75;nan;95713.09;5048611;28;20202;-63
2022/12/25 12:28:22;;;;;;;4.40;2.03;;;;;;;13.61;nan;95721.22;5049510;28;20663;-63
2022/12/25 12:30:58;;;;;;;2.60;2.40;;;;;;;13.42;nan;95710.00;5047890;28;20486;-65
2022/12/25 12:33:30;;;;;;;2.72;2.40;;;;;;;13.34;nan;95717.09;5048559;28;20702;-64
2022/12/25 12:35:57;;;;;;;3.80;1.85;;;;;;;13.29;nan;95716.41;5049318;28;20218;-65
2022/12/25 12:38:25;;;;;;;2.75;1.95;;;;;;;13.22;nan;95718.34;5049582;28;20228;-65
2022/12/25 12:40:56;;;;;;;1.70;1.60;;;;;;;13.18;nan;95721.03;5049883;28;20336;-65
2022/12/25 12:43:34;;;;;;;2.30;2.00;;;;;;;13.16;nan;95718.53;5048041;28;20198;-63
2022/12/25 12:46:06;;;;;;;1.98;1.80;;;;;;;13.10;nan;95715.34;5047131;28;20288;-64
2022/12/25 12:48:40;;;;;;;2.25;2.05;;;;;;;13.07;nan;95723.09;5048967;28;20609;-63
2022/12/25 12:51:09;;;;;;;2.47;1.50;;;;;;;13.07;nan;95730.75;5048987;28;20251;-65
2022/12/25 12:53:38;;;;;;;2.95;1.80;;;;;;;13.03;nan;95726.63;5048556;28;20198;-64
2022/12/25 12:56:17;;;;;;;6.22;2.00;;;;;;;12.92;nan;95727.78;5048451;28;20239;-62
2022/12/25 12:58:48;;;;;;;2.55;1.70;;;;;;;12.94;nan;95738.78;5049202;28;20833;-61
2022/12/25 13:01:39;;;;;;;4.07;1.80;;;;;;;12.94;nan;95740.50;5049073;28;20231;-63
2022/12/25 13:04:29;;;;;;;4.65;2.08;;;;;;;12.87;nan;95732.19;5047796;28;20216;-64
2022/12/25 13:07:03;;;;;;;2.30;1.80;;;;;;;12.81;nan;95737.50;5047939;28;20945;-60
2022/12/25 13:09:40;;;;;;;3.38;2.35;;;;;;;12.76;nan;95738.53;5048216;28;20621;-62
2022/12/25 13:12:10;;;;;;;2.40;1.83;;;;;;;12.67;nan;95733.72;5049027;28;20201;-62
2022/12/25 13:14:37;;;;;;;2.55;1.67;;;;;;;12.60;nan;95733.09;5047781;28;20225;-62
2022/12/25 13:17:08;;;;;;;4.18;1.33;;;;;;;12.53;nan;95736.69;5048800;28;20213;-60
2022/12/25 13:19:38;;;;;;;2.20;1.83;;;;;;;12.55;nan;95735.78;5047816;28;20751;-62
2022/12/25 13:22:06;;;;;;;2.35;2.03;;;;;;;12.39;nan;95713.31;5048869;28;20237;-62
2022/12/25 13:24:34;;;;;;;1.83;1.73;;;;;;;12.44;nan;95734.41;5048805;28;20213;-61
2022/12/25 13:27:16;;;;;;;3.10;1.98;;;;;;;12.45;nan;95733.53;5049045;28;20331;-63
2022/12/25 13:29:44;;;;;;;2.58;1.30;;;;;;;12.46;nan;95735.19;5048856;28;20402;-62
2022/12/25 13:32:20;;;;;;;6.35;4.97;;;;;;;12.39;nan;95736.25;5048015;28;20205;-63
2022/12/25 13:34:49;;;;;;;2.88;2.10;;;;;;;12.38;nan;95743.06;5048253;28;20605;-64
2022/12/25 13:37:18;;;;;;;2.28;2.00;;;;;;;12.38;nan;95737.97;5046394;28;20213;-62
2022/12/25 13:39:50;;;;;;;4.43;3.40;;;;;;;12.36;nan;95744.03;5046846;28;20783;-62
2022/12/25 13:42:19;;;;;;;9.80;3.13;;;;;;;12.41;nan;95739.59;5044764;28;20212;-62
2022/12/25 13:44:50;;;;;;;3.30;2.03;;;;;;;12.40;nan;95745.56;5047342;28;20210;-61
2022/12/25 13:47:21;;;;;;;2.67;2.00;;;;;;;12.29;nan;95743.34;5046434;28;20209;-60
2022/12/25 13:49:48;;;;;;;2.72;1.33;;;;;;;12.28;nan;95744.25;5046170;28;20308;-61
2022/12/25 13:52:17;;;;;;;2.17;1.98;;;;;;;12.24;nan;95738.38;5046785;28;20860;-60